Time,TemperatureF,DewpointF,PressureIn,WindDirection,WindDirectionDegrees,WindSpeedMPH,WindSpeedGustMPH,Humidity,HourlyPrecipIn,Conditions,Clouds,dailyrainin,SolarRadiationWatts/m^2,SoftwareType,DateUTC
2013-06-02 00:08:00,73.4,69.0,29.85,NW,321,0.0,3.0,85,0.00,,,0.00,0,weatherlink.com 1.10,2013-06-02 04:08:00,
2013-06-02 00:22:00,73.2,69.0,29.85,NW,321,0.0,0.0,86,0.00,,,0.00,0,weatherlink.com 1.10,2013-06-02 04:22:00,
2013-06-02 00:37:00,73.5,69.0,29.85,WNW,289,0.0,2.0,85,0.00,,,0.00,0,weatherlink.com 1.10,2013-06-02 04:37:00,
2013-06-02 01:07:00,73.1,68.0,29.84,WNW,289,0.0,0.0,85,0.00,,,0.00,0,weatherlink.com 1.10,2013-06-02 05:07:00,
2013-06-02 01:22:00,73.2,68.0,29.84,SSE,151,0.0,3.0,84,0.00,,,0.00,0,weatherlink.com 1.10,2013-06-02 05:22:00,
2013-06-02 01:38:00,73.2,68.0,29.83,SSE,151,0.0,1.0,84,0.00,,,0.00,0,weatherlink.com 1.10,2013-06-02 05:38:00,
2013-06-02 01:52:00,73.2,68.0,29.83,SSE,151,0.0,1.0,84,0.00,,,0.00,0,weatherlink.com 1.10,2013-06-02 05:52:00,
2013-06-02 02:08:00,73.0,68.0,29.83,SSE,151,0.0,1.0,83,0.00,,,0.00,0,weatherlink.com 1.10,2013-06-02 06:08:00,
2013-06-02 02:23:00,72.8,67.0,29.83,SSE,151,0.0,0.0,83,0.00,,,0.00,0,weatherlink.com 1.10,2013-06-02 06:23:00,
2013-06-02 02:38:00,72.5,67.0,29.82,SSE,151,0.0,0.0,84,0.00,,,0.00,0,weatherlink.com 1.10,2013-06-02 06:38:00,
2013-06-02 02:53:00,72.1,67.0,29.82,SSE,151,0.0,2.0,84,0.00,,,0.00,0,weatherlink.com 1.10,2013-06-02 06:53:00,
2013-06-02 03:08:00,72.0,67.0,29.82,SE,144,0.0,2.0,85,0.00,,,0.00,0,weatherlink.com 1.10,2013-06-02 07:08:00,
2013-06-02 03:23:00,72.2,68.0,29.82,SSE,155,0.0,2.0,85,0.00,,,0.00,0,weatherlink.com 1.10,2013-06-02 07:23:00,
2013-06-02 03:53:00,72.2,67.0,29.82,NW,317,0.0,1.0,83,0.00,,,0.00,0,weatherlink.com 1.10,2013-06-02 07:53:00,
2013-06-02 04:08:00,72.1,67.0,29.82,WNW,292,0.0,1.0,83,0.00,,,0.00,0,weatherlink.com 1.10,2013-06-02 08:08:00,
2013-06-02 04:23:00,72.0,67.0,29.82,WNW,292,0.0,1.0,83,0.00,,,0.00,0,weatherlink.com 1.10,2013-06-02 08:23:00,
2013-06-02 04:38:00,71.6,67.0,29.81,WNW,292,0.0,0.0,84,0.00,,,0.00,0,weatherlink.com 1.10,2013-06-02 08:38:00,
2013-06-02 04:53:00,71.3,66.0,29.81,WNW,292,0.0,0.0,84,0.00,,,0.00,0,weatherlink.com 1.10,2013-06-02 08:53:00,
2013-06-02 05:08:00,70.9,66.0,29.80,WNW,292,0.0,0.0,84,0.00,,,0.00,0,weatherlink.com 1.10,2013-06-02 09:08:00,
2013-06-02 05:23:00,70.5,66.0,29.80,WNW,292,0.0,0.0,84,0.00,,,0.00,0,weatherlink.com 1.10,2013-06-02 09:23:00,
2013-06-02 05:38:00,70.2,66.0,29.81,WNW,292,0.0,0.0,86,0.00,,,0.00,5,weatherlink.com 1.10,2013-06-02 09:38:00,
2013-06-02 05:53:00,69.9,66.0,29.81,WNW,292,0.0,0.0,87,0.00,,,0.00,11,weatherlink.com 1.10,2013-06-02 09:53:00,
2013-06-02 06:08:00,69.8,67.0,29.81,WNW,292,0.0,1.0,89,0.00,,,0.00,14,weatherlink.com 1.10,2013-06-02 10:08:00,
2013-06-02 06:23:00,70.2,67.0,29.81,NW,311,2.0,4.0,89,0.00,,,0.00,18,weatherlink.com 1.10,2013-06-02 10:23:00,
2013-06-02 06:38:00,70.8,68.0,29.81,NW,311,0.0,2.0,89,0.00,,,0.00,26,weatherlink.com 1.10,2013-06-02 10:38:00,
2013-06-02 06:53:00,71.4,68.0,29.81,North,350,0.0,3.0,88,0.00,,,0.00,26,weatherlink.com 1.10,2013-06-02 10:53:00,
2013-06-02 07:08:00,71.9,68.0,29.81,NNW,346,1.0,3.0,87,0.00,,,0.00,28,weatherlink.com 1.10,2013-06-02 11:08:00,
2013-06-02 07:23:00,72.5,69.0,29.81,NNW,342,0.0,2.0,87,0.00,,,0.00,33,weatherlink.com 1.10,2013-06-02 11:23:00,
2013-06-02 07:38:00,73.0,69.0,29.80,NW,306,3.0,3.0,86,0.00,,,0.00,35,weatherlink.com 1.10,2013-06-02 11:38:00,
2013-06-02 07:53:00,73.6,69.0,29.80,NW,317,3.0,5.0,85,0.00,,,0.00,26,weatherlink.com 1.10,2013-06-02 11:53:00,
2013-06-02 08:08:00,74.1,69.0,29.80,NNW,347,0.0,4.0,83,0.00,,,0.00,42,weatherlink.com 1.10,2013-06-02 12:08:00,
2013-06-02 08:23:00,74.9,69.0,29.80,ESE,109,0.0,6.0,82,0.00,,,0.00,46,weatherlink.com 1.10,2013-06-02 12:23:00,
2013-06-02 08:38:00,75.6,69.0,29.80,NNW,336,0.0,5.0,81,0.00,,,0.00,47,weatherlink.com 1.10,2013-06-02 12:38:00,
2013-06-02 08:53:00,76.2,70.0,29.79,NNW,332,3.0,5.0,80,0.00,,,0.00,51,weatherlink.com 1.10,2013-06-02 12:53:00,
2013-06-02 09:08:00,76.8,69.0,29.79,NW,313,2.0,3.0,78,0.00,,,0.00,54,weatherlink.com 1.10,2013-06-02 13:08:00,
2013-06-02 09:23:00,77.4,70.0,29.79,NW,306,1.0,5.0,77,0.00,,,0.00,60,weatherlink.com 1.10,2013-06-02 13:23:00,
2013-06-02 09:38:00,77.8,70.0,29.79,SSW,194,0.0,6.0,76,0.00,,,0.00,72,weatherlink.com 1.10,2013-06-02 13:38:00,
2013-06-02 09:53:00,78.3,70.0,29.78,West,279,1.0,7.0,75,0.00,,,0.00,69,weatherlink.com 1.10,2013-06-02 13:53:00,
2013-06-02 10:08:00,78.8,70.0,29.78,NW,317,1.0,5.0,75,0.00,,,0.00,70,weatherlink.com 1.10,2013-06-02 14:08:00,
2013-06-02 10:23:00,79.7,70.0,29.78,SW,232,1.0,5.0,73,0.00,,,0.00,77,weatherlink.com 1.10,2013-06-02 14:23:00,
2013-06-02 10:39:00,80.2,71.0,29.77,NW,311,1.0,5.0,73,0.00,,,0.00,83,weatherlink.com 1.10,2013-06-02 14:39:00,
2013-06-02 10:54:00,81.0,72.0,29.77,NNW,332,0.0,5.0,73,0.00,,,0.00,90,weatherlink.com 1.10,2013-06-02 14:54:00,
2013-06-02 11:09:00,81.9,71.0,29.78,South,188,2.0,6.0,70,0.00,,,0.00,100,weatherlink.com 1.10,2013-06-02 15:09:00,
2013-06-02 11:24:00,82.7,72.0,29.78,NW,315,3.0,4.0,69,0.00,,,0.00,831,weatherlink.com 1.10,2013-06-02 15:24:00,
2013-06-02 11:39:00,83.2,71.0,29.77,WNW,287,1.0,5.0,66,0.00,,,0.00,849,weatherlink.com 1.10,2013-06-02 15:39:00,
2013-06-02 11:54:00,83.7,71.0,29.77,North,360,1.0,5.0,66,0.00,,,0.00,877,weatherlink.com 1.10,2013-06-02 15:54:00,
2013-06-02 12:09:00,84.8,73.0,29.76,NW,306,1.0,7.0,67,0.00,,,0.00,900,weatherlink.com 1.10,2013-06-02 16:09:00,
2013-06-02 12:24:00,85.0,71.0,29.76,NW,309,2.0,4.0,64,0.00,,,0.00,914,weatherlink.com 1.10,2013-06-02 16:24:00,
2013-06-02 12:39:00,85.4,71.0,29.75,WNW,302,2.0,5.0,63,0.00,,,0.00,921,weatherlink.com 1.10,2013-06-02 16:39:00,
2013-06-02 12:54:00,86.1,72.0,29.74,West,278,1.0,5.0,63,0.00,,,0.00,912,weatherlink.com 1.10,2013-06-02 16:54:00,
2013-06-02 13:09:00,86.5,71.0,29.73,WNW,286,1.0,5.0,61,0.00,,,0.00,939,weatherlink.com 1.10,2013-06-02 17:09:00,
2013-06-02 13:24:00,87.3,72.0,29.73,SW,225,2.0,5.0,61,0.00,,,0.00,1021,weatherlink.com 1.10,2013-06-02 17:24:00,
2013-06-02 13:39:00,85.2,71.0,29.72,NW,309,0.0,7.0,63,0.00,,,0.00,197,weatherlink.com 1.10,2013-06-02 17:39:00,
2013-06-02 13:54:00,82.7,72.0,29.73,North,355,2.0,7.0,69,0.00,,,0.00,35,weatherlink.com 1.10,2013-06-02 17:54:00,
2013-06-02 14:09:00,76.9,70.0,29.73,WSW,240,2.0,7.0,78,0.00,,,0.00,46,weatherlink.com 1.10,2013-06-02 18:09:00,
2013-06-02 14:24:00,74.5,69.0,29.75,WNW,301,1.0,4.0,84,0.00,,,0.00,14,weatherlink.com 1.10,2013-06-02 18:24:00,
2013-06-02 14:39:00,72.9,69.0,29.75,WNW,282,0.0,5.0,87,0.01,,,0.01,14,weatherlink.com 1.10,2013-06-02 18:39:00,
2013-06-02 14:54:00,71.8,68.0,29.74,NNW,329,3.0,4.0,87,0.01,,,0.01,32,weatherlink.com 1.10,2013-06-02 18:54:00,
2013-06-02 15:09:00,71.0,67.0,29.76,WSW,246,1.0,4.0,87,0.01,,,0.01,90,weatherlink.com 1.10,2013-06-02 19:09:00,
2013-06-02 15:24:00,71.3,67.0,29.75,West,265,1.0,3.0,87,0.01,,,0.01,288,weatherlink.com 1.10,2013-06-02 19:24:00,
2013-06-02 15:39:00,71.6,67.0,29.74,South,174,0.0,4.0,84,0.00,,,0.01,236,weatherlink.com 1.10,2013-06-02 19:39:00,
2013-06-02 15:54:00,72.1,67.0,29.74,NNW,346,1.0,4.0,84,0.00,,,0.01,195,weatherlink.com 1.10,2013-06-02 19:54:00,
2013-06-02 16:09:00,72.2,68.0,29.74,SSE,162,1.0,2.0,85,0.00,,,0.01,207,weatherlink.com 1.10,2013-06-02 20:09:00,
2013-06-02 16:24:00,72.8,68.0,29.74,SSE,153,1.0,2.0,85,0.00,,,0.01,98,weatherlink.com 1.10,2013-06-02 20:24:00,
2013-06-02 16:39:00,73.3,69.0,29.73,SSE,153,0.0,1.0,86,0.00,,,0.01,109,weatherlink.com 1.10,2013-06-02 20:39:00,
2013-06-02 16:54:00,72.8,70.0,29.74,SSE,153,0.0,1.0,89,0.04,,,0.05,30,weatherlink.com 1.10,2013-06-02 20:54:00,
2013-06-02 17:09:00,71.8,69.0,29.74,SSE,153,1.0,1.0,92,0.26,,,0.27,53,weatherlink.com 1.10,2013-06-02 21:09:00,
2013-06-02 17:24:00,72.7,71.0,29.73,WNW,296,0.0,1.0,95,0.28,,,0.29,292,weatherlink.com 1.10,2013-06-02 21:24:00,
2013-06-02 17:39:00,74.2,72.0,29.73,SW,215,1.0,3.0,94,0.28,,,0.29,299,weatherlink.com 1.10,2013-06-02 21:39:00,
2013-06-02 17:54:00,74.0,72.0,29.73,NNW,330,0.0,1.0,92,0.24,,,0.29,248,weatherlink.com 1.10,2013-06-02 21:54:00,
2013-06-02 18:09:00,73.8,72.0,29.73,NNW,328,0.0,1.0,93,0.01,,,0.29,137,weatherlink.com 1.10,2013-06-02 22:09:00,
2013-06-02 18:24:00,73.5,72.0,29.73,NNW,328,0.0,1.0,94,0.00,,,0.29,88,weatherlink.com 1.10,2013-06-02 22:24:00,
2013-06-02 18:39:00,73.4,72.0,29.72,NNW,328,0.0,1.0,95,0.00,,,0.29,95,weatherlink.com 1.10,2013-06-02 22:39:00,
2013-06-02 18:54:00,73.1,72.0,29.72,NNW,328,0.0,1.0,95,0.00,,,0.29,63,weatherlink.com 1.10,2013-06-02 22:54:00,
2013-06-02 19:09:00,73.4,72.0,29.74,SW,219,1.0,3.0,94,0.00,,,0.29,153,weatherlink.com 1.10,2013-06-02 23:09:00,
2013-06-02 19:24:00,73.8,72.0,29.73,SSE,163,0.0,0.0,94,0.00,,,0.29,65,weatherlink.com 1.10,2013-06-02 23:24:00,
2013-06-02 19:39:00,73.4,72.0,29.74,SSE,163,0.0,1.0,94,0.00,,,0.29,21,weatherlink.com 1.10,2013-06-02 23:39:00,
2013-06-02 19:54:00,72.9,71.0,29.74,SSE,163,0.0,0.0,95,0.00,,,0.29,23,weatherlink.com 1.10,2013-06-02 23:54:00,
2013-06-02 20:09:00,72.5,71.0,29.74,SSE,163,0.0,1.0,95,0.00,,,0.29,9,weatherlink.com 1.10,2013-06-03 00:09:00,
2013-06-02 20:25:00,71.8,70.0,29.75,SSE,163,0.0,0.0,95,0.00,,,0.29,0,weatherlink.com 1.10,2013-06-03 00:25:00,
2013-06-02 20:40:00,71.4,70.0,29.75,SSE,163,0.0,0.0,96,0.00,,,0.29,0,weatherlink.com 1.10,2013-06-03 00:40:00,
2013-06-02 20:55:00,71.2,70.0,29.75,SSE,163,0.0,0.0,96,0.00,,,0.29,0,weatherlink.com 1.10,2013-06-03 00:55:00,
2013-06-02 21:10:00,71.3,70.0,29.76,SSE,163,0.0,0.0,96,0.00,,,0.29,0,weatherlink.com 1.10,2013-06-03 01:10:00,
2013-06-02 21:25:00,71.3,70.0,29.76,SSE,163,0.0,0.0,97,0.00,,,0.29,0,weatherlink.com 1.10,2013-06-03 01:25:00,
2013-06-02 21:40:00,71.2,70.0,29.77,SSE,163,0.0,0.0,97,0.00,,,0.29,0,weatherlink.com 1.10,2013-06-03 01:40:00,
2013-06-02 21:55:00,71.2,70.0,29.78,SSE,163,0.0,1.0,97,0.00,,,0.29,0,weatherlink.com 1.10,2013-06-03 01:55:00,
2013-06-02 22:10:00,71.2,70.0,29.80,SSE,163,0.0,2.0,97,0.00,,,0.29,0,weatherlink.com 1.10,2013-06-03 02:10:00,
2013-06-02 22:25:00,70.0,69.0,29.80,SSW,200,0.0,4.0,96,0.00,,,0.29,0,weatherlink.com 1.10,2013-06-03 02:25:00,
2013-06-02 22:40:00,69.5,68.0,29.79,SSW,211,0.0,1.0,95,0.00,,,0.29,0,weatherlink.com 1.10,2013-06-03 02:40:00,
2013-06-02 22:55:00,69.2,68.0,29.80,SSW,207,0.0,0.0,95,0.00,,,0.29,0,weatherlink.com 1.10,2013-06-03 02:55:00,
2013-06-02 23:10:00,69.0,67.0,29.81,SSW,207,0.0,0.0,94,0.00,,,0.29,0,weatherlink.com 1.10,2013-06-03 03:10:00,
2013-06-02 23:25:00,68.6,67.0,29.82,SSW,207,0.0,1.0,94,0.00,,,0.29,0,weatherlink.com 1.10,2013-06-03 03:25:00,
2013-06-02 23:40:00,68.5,67.0,29.82,SSW,207,0.0,1.0,94,0.00,,,0.29,0,weatherlink.com 1.10,2013-06-03 03:40:00,
2013-06-02 23:55:00,68.2,66.0,29.82,SSW,207,0.0,0.0,93,0.00,,,0.29,0,weatherlink.com 1.10,2013-06-03 03:55:00,